Time,TemperatureF,DewpointF,PressureIn,WindDirection,WindDirectionDegrees,WindSpeedMPH,WindSpeedGustMPH,Humidity,HourlyPrecipIn,Conditions,Clouds,dailyrainin,SolarRadiationWatts/m^2,SoftwareType,DateUTC
2013-04-29 00:00:00,55.3,54.8,30.03,ESE,116,1.0,1.0,98,0.02,,,1.16,0.00,VWS V14.01,2013-04-29 04:00:00,
2013-04-29 00:01:00,55.4,54.8,30.03,ESE,116,0.0,0.0,98,0.02,,,0.00,0.00,VWS V14.01,2013-04-29 04:01:00,
2013-04-29 00:06:00,55.4,54.8,30.03,SSE,155,0.0,0.0,98,0.02,,,0.00,0.00,VWS V14.01,2013-04-29 04:06:00,
2013-04-29 00:11:00,55.5,55.0,30.04,SE,140,0.0,1.0,98,0.02,,,0.00,0.00,VWS V14.01,2013-04-29 04:11:00,
2013-04-29 00:16:00,55.5,55.0,30.04,SSW,192,0.0,2.0,98,0.03,,,0.01,0.00,VWS V14.01,2013-04-29 04:16:00,
2013-04-29 00:21:00,55.6,55.0,30.04,South,191,0.0,0.0,98,0.03,,,0.01,0.00,VWS V14.01,2013-04-29 04:21:00,
2013-04-29 00:26:00,55.6,55.0,30.04,South,191,0.0,0.0,98,0.02,,,0.01,0.00,VWS V14.01,2013-04-29 04:26:00,
2013-04-29 00:31:00,55.7,55.2,30.04,South,186,0.0,0.0,98,0.02,,,0.01,0.00,VWS V14.01,2013-04-29 04:31:00,
2013-04-29 00:36:00,55.7,55.2,30.04,WSW,246,0.0,0.0,98,0.02,,,0.01,0.00,VWS V14.01,2013-04-29 04:36:00,
2013-04-29 00:41:00,55.7,55.2,30.04,WSW,246,0.0,0.0,98,0.02,,,0.01,0.00,VWS V14.01,2013-04-29 04:41:00,
2013-04-29 00:46:00,55.8,55.2,30.04,WSW,246,0.0,0.0,98,0.02,,,0.01,0.00,VWS V14.01,2013-04-29 04:46:00,
2013-04-29 00:51:00,55.8,55.2,30.05,WSW,246,0.0,0.0,98,0.01,,,0.01,0.00,VWS V14.01,2013-04-29 04:51:00,
2013-04-29 00:56:00,55.8,55.2,30.05,WSW,246,0.0,0.0,98,0.01,,,0.01,0.00,VWS V14.01,2013-04-29 04:56:00,
2013-04-29 01:01:00,55.9,55.3,30.05,WSW,246,0.0,0.0,98,0.01,,,0.01,0.00,VWS V14.01,2013-04-29 05:01:00,
2013-04-29 01:06:00,55.9,55.3,30.05,WSW,246,0.0,1.0,98,0.01,,,0.01,0.00,VWS V14.01,2013-04-29 05:06:00,
2013-04-29 01:11:00,56.0,55.5,30.05,WSW,246,0.0,0.0,98,0.01,,,0.01,0.00,VWS V14.01,2013-04-29 05:11:00,
2013-04-29 01:16:00,56.0,55.5,30.05,WSW,246,0.0,0.0,98,0.00,,,0.01,0.00,VWS V14.01,2013-04-29 05:16:00,
2013-04-29 01:21:00,56.1,55.5,30.05,South,175,0.0,0.0,98,0.00,,,0.01,0.00,VWS V14.01,2013-04-29 05:21:00,
2013-04-29 01:26:00,56.1,55.5,30.05,South,175,0.0,0.0,98,0.01,,,0.02,0.00,VWS V14.01,2013-04-29 05:26:00,
2013-04-29 01:31:00,56.1,55.5,30.05,South,175,0.0,0.0,98,0.01,,,0.02,0.00,VWS V14.01,2013-04-29 05:31:00,
2013-04-29 01:36:00,56.1,55.5,30.05,South,176,0.0,0.0,98,0.01,,,0.02,0.00,VWS V14.01,2013-04-29 05:36:00,
2013-04-29 01:41:00,56.1,55.5,30.05,South,176,0.0,0.0,98,0.01,,,0.02,0.00,VWS V14.01,2013-04-29 05:41:00,
2013-04-29 01:46:00,56.1,55.5,30.05,South,176,0.0,0.0,98,0.01,,,0.02,0.00,VWS V14.01,2013-04-29 05:46:00,
2013-04-29 01:51:00,56.1,55.5,30.05,South,181,0.0,0.0,98,0.01,,,0.02,0.00,VWS V14.01,2013-04-29 05:51:00,
2013-04-29 01:56:00,56.1,55.5,30.05,South,181,0.0,1.0,98,0.01,,,0.02,0.00,VWS V14.01,2013-04-29 05:56:00,
2013-04-29 02:01:00,56.1,55.5,30.05,South,181,0.0,0.0,98,0.02,,,0.03,0.00,VWS V14.01,2013-04-29 06:01:00,
2013-04-29 02:06:00,56.1,55.5,30.05,South,181,0.0,0.0,98,0.02,,,0.03,0.00,VWS V14.01,2013-04-29 06:06:00,
2013-04-29 02:11:00,56.1,55.5,30.05,South,181,0.0,0.0,98,0.03,,,0.04,0.00,VWS V14.01,2013-04-29 06:11:00,
2013-04-29 02:16:00,56.0,55.5,30.05,South,181,0.0,0.0,98,0.03,,,0.04,0.00,VWS V14.01,2013-04-29 06:16:00,
2013-04-29 02:21:00,56.0,55.5,30.05,South,181,0.0,0.0,98,0.04,,,0.05,0.00,VWS V14.01,2013-04-29 06:21:00,
2013-04-29 02:26:00,55.9,55.3,30.04,South,181,0.0,0.0,98,0.03,,,0.05,0.00,VWS V14.01,2013-04-29 06:26:00,
2013-04-29 02:31:00,55.9,55.3,30.05,South,186,1.0,1.0,98,0.03,,,0.05,0.00,VWS V14.01,2013-04-29 06:31:00,
2013-04-29 02:36:00,55.7,54.9,30.04,South,186,0.0,0.0,97,0.04,,,0.06,0.00,VWS V14.01,2013-04-29 06:36:00,
2013-04-29 02:41:00,55.7,54.9,30.04,South,186,0.0,0.0,97,0.04,,,0.06,0.00,VWS V14.01,2013-04-29 06:41:00,
2013-04-29 02:46:00,55.6,54.8,30.04,South,186,0.0,0.0,97,0.05,,,0.07,0.00,VWS V14.01,2013-04-29 06:46:00,
2013-04-29 02:51:00,55.6,55.0,30.03,South,186,0.0,0.0,98,0.05,,,0.07,0.00,VWS V14.01,2013-04-29 06:51:00,
2013-04-29 02:56:00,55.5,54.7,30.03,South,186,0.0,0.0,97,0.05,,,0.07,0.00,VWS V14.01,2013-04-29 06:56:00,
2013-04-29 03:00:00,55.5,54.7,30.03,South,186,0.0,0.0,97,0.04,,,0.07,0.00,VWS V14.01,2013-04-29 07:00:00,
2013-04-29 03:05:00,55.4,54.8,30.03,South,186,0.0,0.0,98,0.04,,,0.07,0.00,VWS V14.01,2013-04-29 07:05:00,
2013-04-29 03:10:00,55.4,54.8,30.03,South,186,0.0,0.0,98,0.04,,,0.08,0.00,VWS V14.01,2013-04-29 07:10:00,
2013-04-29 03:15:00,55.3,54.8,30.03,South,186,0.0,0.0,98,0.04,,,0.08,0.00,VWS V14.01,2013-04-29 07:15:00,
2013-04-29 03:20:00,55.3,54.8,30.03,South,186,0.0,0.0,98,0.03,,,0.08,0.00,VWS V14.01,2013-04-29 07:20:00,
2013-04-29 03:25:00,55.3,54.8,30.03,South,186,0.0,0.0,98,0.03,,,0.08,0.00,VWS V14.01,2013-04-29 07:25:00,
2013-04-29 03:30:00,55.2,54.7,30.03,South,186,0.0,0.0,98,0.03,,,0.08,0.00,VWS V14.01,2013-04-29 07:30:00,
2013-04-29 03:35:00,55.2,54.7,30.02,South,186,0.0,0.0,98,0.02,,,0.08,0.00,VWS V14.01,2013-04-29 07:35:00,
2013-04-29 03:40:00,55.2,54.7,30.02,South,186,0.0,0.0,98,0.02,,,0.08,0.00,VWS V14.01,2013-04-29 07:40:00,
2013-04-29 03:45:00,55.2,54.7,30.02,South,186,0.0,0.0,98,0.02,,,0.08,0.00,VWS V14.01,2013-04-29 07:45:00,
2013-04-29 03:50:00,55.2,54.7,30.02,South,186,0.0,0.0,98,0.01,,,0.08,0.00,VWS V14.01,2013-04-29 07:50:00,
2013-04-29 03:55:00,55.2,54.7,30.02,South,186,0.0,0.0,98,0.01,,,0.08,0.00,VWS V14.01,2013-04-29 07:55:00,
2013-04-29 04:00:00,55.2,54.7,30.03,South,186,0.0,0.0,98,0.01,,,0.08,0.00,VWS V14.01,2013-04-29 08:00:00,
2013-04-29 04:05:00,55.2,54.7,30.03,South,186,0.0,0.0,98,0.01,,,0.08,0.00,VWS V14.01,2013-04-29 08:05:00,
2013-04-29 04:10:00,55.2,54.7,30.03,South,186,0.0,0.0,98,0.00,,,0.08,0.00,VWS V14.01,2013-04-29 08:10:00,
2013-04-29 04:15:00,55.2,54.7,30.03,South,186,0.0,0.0,98,0.00,,,0.08,0.00,VWS V14.01,2013-04-29 08:15:00,
2013-04-29 04:20:00,55.1,54.5,30.03,South,186,0.0,0.0,98,0.00,,,0.08,0.00,VWS V14.01,2013-04-29 08:20:00,
2013-04-29 04:25:00,55.1,54.3,30.03,South,186,0.0,0.0,97,0.00,,,0.08,0.00,VWS V14.01,2013-04-29 08:25:00,
2013-04-29 04:30:00,55.1,54.3,30.02,South,186,0.0,0.0,97,0.00,,,0.08,0.00,VWS V14.01,2013-04-29 08:30:00,
2013-04-29 04:35:00,55.1,54.3,30.03,South,186,0.0,0.0,97,0.00,,,0.08,0.00,VWS V14.01,2013-04-29 08:35:00,
2013-04-29 04:40:00,55.1,54.3,30.02,South,186,0.0,0.0,97,0.00,,,0.08,0.00,VWS V14.01,2013-04-29 08:40:00,
2013-04-29 04:45:00,55.1,54.5,30.02,South,186,0.0,0.0,98,0.00,,,0.08,0.00,VWS V14.01,2013-04-29 08:45:00,
2013-04-29 04:50:00,55.1,54.3,30.02,South,186,0.0,0.0,97,0.01,,,0.09,0.00,VWS V14.01,2013-04-29 08:50:00,
2013-04-29 04:55:00,55.0,54.2,30.02,South,186,0.0,0.0,97,0.01,,,0.09,0.00,VWS V14.01,2013-04-29 08:55:00,
2013-04-29 05:00:00,54.9,54.1,30.02,South,186,0.0,0.0,97,0.01,,,0.09,0.00,VWS V14.01,2013-04-29 09:00:00,
2013-04-29 05:05:00,54.8,54.0,30.02,South,186,0.0,0.0,97,0.02,,,0.10,0.00,VWS V14.01,2013-04-29 09:05:00,
2013-04-29 05:10:00,54.7,53.9,30.02,West,276,0.0,1.0,97,0.02,,,0.10,0.00,VWS V14.01,2013-04-29 09:10:00,
2013-04-29 05:15:00,54.6,53.8,30.02,West,277,0.0,1.0,97,0.02,,,0.10,0.00,VWS V14.01,2013-04-29 09:15:00,
2013-04-29 05:20:00,54.5,53.7,30.01,West,277,0.0,0.0,97,0.02,,,0.10,0.00,VWS V14.01,2013-04-29 09:20:00,
2013-04-29 05:25:00,54.4,53.6,30.01,West,277,0.0,0.0,97,0.03,,,0.11,0.00,VWS V14.01,2013-04-29 09:25:00,
2013-04-29 05:30:00,54.3,53.5,30.01,West,277,0.0,0.0,97,0.03,,,0.11,0.00,VWS V14.01,2013-04-29 09:30:00,
2013-04-29 05:35:00,54.2,53.4,30.01,West,277,0.0,0.0,97,0.03,,,0.11,0.00,VWS V14.01,2013-04-29 09:35:00,
2013-04-29 05:40:00,54.1,53.3,30.01,West,277,0.0,0.0,97,0.03,,,0.11,0.00,VWS V14.01,2013-04-29 09:40:00,
2013-04-29 05:45:00,54.0,53.2,30.02,West,277,0.0,2.0,97,0.03,,,0.11,0.00,VWS V14.01,2013-04-29 09:45:00,
2013-04-29 05:50:00,53.9,53.1,30.02,West,277,0.0,1.0,97,0.02,,,0.11,0.00,VWS V14.01,2013-04-29 09:50:00,
2013-04-29 05:55:00,53.9,53.1,30.02,WSW,252,0.0,0.0,97,0.02,,,0.11,0.00,VWS V14.01,2013-04-29 09:55:00,
2013-04-29 06:00:00,53.9,53.1,30.02,WSW,252,0.0,0.0,97,0.02,,,0.11,0.00,VWS V14.01,2013-04-29 10:00:00,
2013-04-29 06:05:00,53.8,53.0,30.02,WSW,252,0.0,0.0,97,0.01,,,0.11,0.00,VWS V14.01,2013-04-29 10:05:00,
2013-04-29 06:10:00,53.8,53.0,30.02,WSW,252,0.0,0.0,97,0.01,,,0.11,0.00,VWS V14.01,2013-04-29 10:10:00,
2013-04-29 06:15:00,53.8,53.0,30.02,WSW,252,0.0,0.0,97,0.01,,,0.11,0.00,VWS V14.01,2013-04-29 10:15:00,
2013-04-29 06:20:00,53.8,53.0,30.03,WSW,252,0.0,0.0,97,0.01,,,0.11,0.00,VWS V14.01,2013-04-29 10:20:00,
2013-04-29 06:25:00,53.7,52.9,30.03,WSW,252,0.0,0.0,97,0.02,,,0.12,0.00,VWS V14.01,2013-04-29 10:25:00,
2013-04-29 06:30:00,53.7,52.9,30.04,WSW,252,0.0,1.0,97,0.01,,,0.12,0.00,VWS V14.01,2013-04-29 10:30:00,
2013-04-29 06:35:00,53.7,52.9,30.04,WSW,252,0.0,0.0,97,0.01,,,0.12,0.00,VWS V14.01,2013-04-29 10:35:00,
2013-04-29 06:40:00,53.6,52.8,30.04,WSW,252,0.0,0.0,97,0.02,,,0.13,0.00,VWS V14.01,2013-04-29 10:40:00,
2013-04-29 06:45:00,53.6,52.8,30.04,WSW,252,0.0,0.0,97,0.02,,,0.13,0.00,VWS V14.01,2013-04-29 10:45:00,
2013-04-29 06:50:00,53.6,52.8,30.04,WSW,252,0.0,0.0,97,0.02,,,0.13,0.00,VWS V14.01,2013-04-29 10:50:00,
2013-04-29 06:55:00,53.6,52.8,30.05,WSW,252,0.0,0.0,97,0.02,,,0.13,0.00,VWS V14.01,2013-04-29 10:55:00,
2013-04-29 07:00:00,53.6,52.8,30.05,WSW,252,0.0,0.0,97,0.03,,,0.14,0.00,VWS V14.01,2013-04-29 11:00:00,
2013-04-29 07:05:00,53.7,52.9,30.05,WSW,252,0.0,0.0,97,0.03,,,0.14,5.00,VWS V14.01,2013-04-29 11:05:00,
2013-04-29 07:10:00,53.7,52.9,30.04,WSW,252,0.0,0.0,97,0.04,,,0.15,7.00,VWS V14.01,2013-04-29 11:10:00,
2013-04-29 07:15:00,53.6,52.8,30.04,WSW,252,0.0,0.0,97,0.04,,,0.15,11.00,VWS V14.01,2013-04-29 11:15:00,
2013-04-29 07:20:00,53.7,52.9,30.04,WSW,252,0.0,0.0,97,0.04,,,0.15,12.00,VWS V14.01,2013-04-29 11:20:00,
2013-04-29 07:25:00,53.7,52.9,30.04,WSW,252,0.0,0.0,97,0.03,,,0.15,14.00,VWS V14.01,2013-04-29 11:25:00,
2013-04-29 07:30:00,53.7,52.9,30.04,WSW,252,0.0,0.0,97,0.03,,,0.15,12.00,VWS V14.01,2013-04-29 11:30:00,
2013-04-29 07:35:00,53.7,52.9,30.05,WSW,252,1.0,1.0,97,0.03,,,0.15,12.00,VWS V14.01,2013-04-29 11:35:00,
2013-04-29 07:40:00,53.7,52.9,30.04,WSW,252,0.0,0.0,97,0.03,,,0.16,19.00,VWS V14.01,2013-04-29 11:40:00,
2013-04-29 07:45:00,53.7,52.9,30.05,WSW,252,0.0,0.0,97,0.03,,,0.16,18.00,VWS V14.01,2013-04-29 11:45:00,
2013-04-29 07:50:00,53.7,52.9,30.05,WSW,252,0.0,0.0,97,0.03,,,0.16,21.00,VWS V14.01,2013-04-29 11:50:00,
2013-04-29 07:55:00,53.7,53.2,30.05,WSW,252,0.0,0.0,98,0.03,,,0.16,30.00,VWS V14.01,2013-04-29 11:55:00,
2013-04-29 08:00:00,53.8,53.2,30.04,WSW,252,0.0,0.0,98,0.02,,,0.16,39.00,VWS V14.01,2013-04-29 12:00:00,
2013-04-29 08:05:00,53.9,53.3,30.05,WSW,252,0.0,0.0,98,0.02,,,0.16,44.00,VWS V14.01,2013-04-29 12:05:00,
2013-04-29 08:10:00,53.9,53.3,30.05,WSW,252,0.0,0.0,98,0.02,,,0.16,32.00,VWS V14.01,2013-04-29 12:10:00,
2013-04-29 08:15:00,54.0,53.5,30.05,WSW,252,0.0,0.0,98,0.01,,,0.16,37.00,VWS V14.01,2013-04-29 12:15:00,
2013-04-29 08:20:00,54.0,53.5,30.05,WSW,245,0.0,0.0,98,0.01,,,0.16,49.00,VWS V14.01,2013-04-29 12:20:00,
2013-04-29 08:25:00,54.1,53.5,30.05,WSW,245,0.0,0.0,98,0.01,,,0.16,54.00,VWS V14.01,2013-04-29 12:25:00,
2013-04-29 08:30:00,54.1,53.5,30.05,WSW,245,0.0,1.0,98,0.01,,,0.16,47.00,VWS V14.01,2013-04-29 12:30:00,
2013-04-29 08:35:00,54.2,53.7,30.05,WSW,254,0.0,0.0,98,0.01,,,0.16,58.00,VWS V14.01,2013-04-29 12:35:00,
2013-04-29 08:40:00,54.2,53.7,30.05,WSW,255,0.0,2.0,98,0.00,,,0.16,63.00,VWS V14.01,2013-04-29 12:40:00,
2013-04-29 08:45:00,54.3,53.8,30.05,WSW,255,0.0,0.0,98,0.00,,,0.16,65.00,VWS V14.01,2013-04-29 12:45:00,
2013-04-29 08:50:00,54.3,53.8,30.06,WSW,255,0.0,0.0,98,0.00,,,0.16,76.00,VWS V14.01,2013-04-29 12:50:00,
2013-04-29 08:55:00,54.5,54.0,30.05,WNW,288,2.0,3.0,98,0.00,,,0.16,91.00,VWS V14.01,2013-04-29 12:55:00,
2013-04-29 09:00:00,54.5,54.0,30.05,WNW,290,0.0,1.0,98,0.00,,,0.16,88.00,VWS V14.01,2013-04-29 13:00:00,
2013-04-29 09:05:00,54.6,54.0,30.05,WNW,296,0.0,0.0,98,0.00,,,0.16,72.00,VWS V14.01,2013-04-29 13:05:00,
2013-04-29 09:10:00,54.6,54.0,30.05,WNW,291,0.0,0.0,98,0.00,,,0.16,100.00,VWS V14.01,2013-04-29 13:10:00,
2013-04-29 09:15:00,54.7,54.2,30.06,WNW,291,0.0,0.0,98,0.00,,,0.16,81.00,VWS V14.01,2013-04-29 13:15:00,
2013-04-29 09:20:00,54.8,54.2,30.05,WNW,291,0.0,0.0,98,0.00,,,0.16,90.00,VWS V14.01,2013-04-29 13:20:00,
2013-04-29 09:25:00,54.9,54.3,30.05,WNW,291,0.0,1.0,98,0.00,,,0.16,121.00,VWS V14.01,2013-04-29 13:25:00,
2013-04-29 09:30:00,55.0,54.5,30.05,WNW,294,0.0,0.0,98,0.00,,,0.16,179.00,VWS V14.01,2013-04-29 13:30:00,
2013-04-29 09:35:00,55.1,54.5,30.05,WNW,294,1.0,1.0,98,0.00,,,0.16,186.00,VWS V14.01,2013-04-29 13:35:00,
2013-04-29 09:40:00,55.1,54.5,30.05,WNW,294,1.0,1.0,98,0.00,,,0.16,105.00,VWS V14.01,2013-04-29 13:40:00,
2013-04-29 09:45:00,55.2,54.7,30.05,WNW,294,0.0,1.0,98,0.00,,,0.16,88.00,VWS V14.01,2013-04-29 13:45:00,
2013-04-29 09:50:00,55.3,54.8,30.05,WNW,294,0.0,0.0,98,0.00,,,0.16,95.00,VWS V14.01,2013-04-29 13:50:00,
2013-04-29 09:55:00,55.4,54.8,30.05,WNW,294,0.0,0.0,98,0.00,,,0.16,86.00,VWS V14.01,2013-04-29 13:55:00,
2013-04-29 10:00:00,55.5,55.0,30.05,WNW,294,0.0,0.0,98,0.00,,,0.16,116.00,VWS V14.01,2013-04-29 14:00:00,
2013-04-29 10:05:00,55.6,55.0,30.04,WNW,294,0.0,0.0,98,0.00,,,0.16,139.00,VWS V14.01,2013-04-29 14:05:00,
2013-04-29 10:10:00,55.7,54.9,30.04,WNW,294,0.0,0.0,97,0.00,,,0.16,123.00,VWS V14.01,2013-04-29 14:10:00,
2013-04-29 10:15:00,55.8,55.2,30.05,WNW,294,0.0,0.0,98,0.00,,,0.16,127.00,VWS V14.01,2013-04-29 14:15:00,
2013-04-29 10:20:00,55.9,55.1,30.05,WNW,294,0.0,1.0,97,0.00,,,0.16,132.00,VWS V14.01,2013-04-29 14:20:00,
2013-04-29 10:25:00,55.9,55.1,30.05,WNW,294,0.0,0.0,97,0.00,,,0.16,128.00,VWS V14.01,2013-04-29 14:25:00,
2013-04-29 10:30:00,56.1,55.3,30.05,WNW,294,0.0,0.0,97,0.00,,,0.16,107.00,VWS V14.01,2013-04-29 14:30:00,
2013-04-29 10:35:00,56.2,55.4,30.05,WNW,294,0.0,0.0,97,0.00,,,0.16,128.00,VWS V14.01,2013-04-29 14:35:00,
2013-04-29 10:40:00,56.3,55.5,30.05,WNW,294,0.0,0.0,97,0.00,,,0.16,98.00,VWS V14.01,2013-04-29 14:40:00,
2013-04-29 10:45:00,56.4,55.6,30.05,WNW,294,0.0,0.0,97,0.00,,,0.16,142.00,VWS V14.01,2013-04-29 14:45:00,
2013-04-29 10:50:00,56.4,55.6,30.05,WNW,302,0.0,0.0,97,0.00,,,0.16,141.00,VWS V14.01,2013-04-29 14:50:00,
2013-04-29 10:55:00,56.6,55.8,30.05,WNW,302,0.0,0.0,97,0.00,,,0.16,163.00,VWS V14.01,2013-04-29 14:55:00,
2013-04-29 11:00:00,56.8,56.0,30.05,WNW,302,0.0,0.0,97,0.00,,,0.16,155.00,VWS V14.01,2013-04-29 15:00:00,
2013-04-29 11:05:00,56.9,56.1,30.05,WNW,302,0.0,0.0,97,0.00,,,0.16,171.00,VWS V14.01,2013-04-29 15:05:00,
2013-04-29 11:10:00,57.1,56.3,30.05,WNW,302,1.0,2.0,97,0.00,,,0.16,213.00,VWS V14.01,2013-04-29 15:10:00,
2013-04-29 11:15:00,57.2,56.1,30.05,WNW,302,0.0,0.0,96,0.00,,,0.16,204.00,VWS V14.01,2013-04-29 15:15:00,
2013-04-29 11:20:00,57.5,56.4,30.05,WNW,302,0.0,0.0,96,0.00,,,0.16,225.00,VWS V14.01,2013-04-29 15:20:00,
2013-04-29 11:25:00,57.5,56.4,30.05,SW,216,0.0,0.0,96,0.00,,,0.16,230.00,VWS V14.01,2013-04-29 15:25:00,
2013-04-29 11:30:00,57.6,56.5,30.05,SW,216,0.0,0.0,96,0.00,,,0.16,188.00,VWS V14.01,2013-04-29 15:30:00,
2013-04-29 11:35:00,57.7,56.3,30.05,SW,216,0.0,0.0,95,0.00,,,0.16,167.00,VWS V14.01,2013-04-29 15:35:00,
2013-04-29 11:40:00,57.7,56.3,30.05,SW,216,0.0,0.0,95,0.00,,,0.16,149.00,VWS V14.01,2013-04-29 15:40:00,
2013-04-29 11:45:00,57.7,56.3,30.05,NNW,334,0.0,0.0,95,0.00,,,0.16,120.00,VWS V14.01,2013-04-29 15:45:00,
2013-04-29 11:50:00,57.9,56.2,30.05,NNW,334,0.0,0.0,94,0.00,,,0.16,211.00,VWS V14.01,2013-04-29 15:50:00,
2013-04-29 11:55:00,58.0,56.3,30.05,SW,230,0.0,0.0,94,0.00,,,0.16,185.00,VWS V14.01,2013-04-29 15:55:00,
2013-04-29 12:00:00,58.1,56.4,30.05,SW,230,0.0,1.0,94,0.00,,,0.16,171.00,VWS V14.01,2013-04-29 16:00:00,
2013-04-29 12:05:00,58.2,56.5,30.05,ENE,73,0.0,0.0,94,0.00,,,0.16,179.00,VWS V14.01,2013-04-29 16:05:00,
2013-04-29 12:10:00,58.1,56.4,30.05,ENE,73,0.0,1.0,94,0.00,,,0.16,181.00,VWS V14.01,2013-04-29 16:10:00,
2013-04-29 12:15:00,58.3,56.6,30.05,ENE,59,2.0,2.0,94,0.00,,,0.16,190.00,VWS V14.01,2013-04-29 16:15:00,
2013-04-29 12:20:00,58.4,56.4,30.05,North,355,0.0,0.0,93,0.00,,,0.16,232.00,VWS V14.01,2013-04-29 16:20:00,
2013-04-29 12:25:00,58.6,56.6,30.05,North,355,0.0,0.0,93,0.00,,,0.16,197.00,VWS V14.01,2013-04-29 16:25:00,
2013-04-29 12:30:00,58.6,56.6,30.05,North,355,0.0,0.0,93,0.00,,,0.16,216.00,VWS V14.01,2013-04-29 16:30:00,
2013-04-29 12:35:00,58.7,56.4,30.05,NNW,344,0.0,2.0,92,0.00,,,0.16,381.00,VWS V14.01,2013-04-29 16:35:00,
2013-04-29 12:40:00,59.0,57.0,30.05,NNE,28,1.0,3.0,93,0.00,,,0.16,338.00,VWS V14.01,2013-04-29 16:40:00,
2013-04-29 12:45:00,59.1,56.8,30.05,NNE,28,0.0,0.0,92,0.00,,,0.16,283.00,VWS V14.01,2013-04-29 16:45:00,
2013-04-29 12:50:00,59.8,57.5,30.05,NNE,28,0.0,0.0,92,0.00,,,0.16,295.00,VWS V14.01,2013-04-29 16:50:00,
2013-04-29 12:55:00,60.1,57.5,30.04,NE,34,0.0,0.0,91,0.00,,,0.16,297.00,VWS V14.01,2013-04-29 16:55:00,
2013-04-29 13:00:00,60.3,57.7,30.04,NE,34,0.0,0.0,91,0.00,,,0.16,427.00,VWS V14.01,2013-04-29 17:00:00,
2013-04-29 13:05:00,60.7,58.1,30.04,NE,34,0.0,0.0,91,0.00,,,0.16,476.00,VWS V14.01,2013-04-29 17:05:00,
2013-04-29 13:10:00,61.4,58.8,30.04,ENE,65,0.0,0.0,91,0.00,,,0.16,492.00,VWS V14.01,2013-04-29 17:10:00,
2013-04-29 13:15:00,62.2,58.3,30.04,ENE,65,0.0,0.0,87,0.00,,,0.16,473.00,VWS V14.01,2013-04-29 17:15:00,
2013-04-29 13:20:00,62.9,59.3,30.04,ENE,65,0.0,0.0,88,0.00,,,0.16,362.00,VWS V14.01,2013-04-29 17:20:00,
2013-04-29 13:25:00,63.4,58.8,30.03,SSE,161,1.0,2.0,85,0.00,,,0.16,429.00,VWS V14.01,2013-04-29 17:25:00,
2013-04-29 13:30:00,63.5,58.6,30.03,SSW,192,0.0,0.0,84,0.00,,,0.16,320.00,VWS V14.01,2013-04-29 17:30:00,
2013-04-29 13:35:00,63.6,58.7,30.03,South,188,0.0,0.0,84,0.00,,,0.16,322.00,VWS V14.01,2013-04-29 17:35:00,
2013-04-29 13:40:00,63.8,58.9,30.03,South,188,0.0,1.0,84,0.00,,,0.16,267.00,VWS V14.01,2013-04-29 17:40:00,
2013-04-29 13:45:00,63.9,59.0,30.03,South,188,0.0,0.0,84,0.00,,,0.16,309.00,VWS V14.01,2013-04-29 17:45:00,
2013-04-29 13:50:00,64.0,58.4,30.03,South,186,1.0,1.0,82,0.00,,,0.16,396.00,VWS V14.01,2013-04-29 17:50:00,
2013-04-29 13:55:00,64.0,58.7,30.02,South,186,0.0,0.0,83,0.00,,,0.16,436.00,VWS V14.01,2013-04-29 17:55:00,
2013-04-29 14:00:00,64.0,58.4,30.02,South,186,1.0,1.0,82,0.00,,,0.16,269.00,VWS V14.01,2013-04-29 18:00:00,
2013-04-29 14:05:00,64.1,58.8,30.02,South,186,2.0,3.0,83,0.00,,,0.16,213.00,VWS V14.01,2013-04-29 18:05:00,
2013-04-29 14:10:00,64.1,58.8,30.02,SSW,207,0.0,0.0,83,0.00,,,0.16,204.00,VWS V14.01,2013-04-29 18:10:00,
2013-04-29 14:15:00,64.3,59.0,30.02,SSW,207,0.0,0.0,83,0.00,,,0.16,276.00,VWS V14.01,2013-04-29 18:15:00,
2013-04-29 14:20:00,64.3,59.4,30.02,SSW,207,0.0,0.0,84,0.00,,,0.16,287.00,VWS V14.01,2013-04-29 18:20:00,
2013-04-29 14:25:00,64.3,59.0,30.02,SSW,205,2.0,2.0,83,0.00,,,0.16,422.00,VWS V14.01,2013-04-29 18:25:00,
2013-04-29 14:30:00,64.2,58.9,30.01,NE,42,0.0,1.0,83,0.00,,,0.16,323.00,VWS V14.01,2013-04-29 18:30:00,
2013-04-29 14:35:00,64.1,58.8,30.01,NE,42,1.0,1.0,83,0.00,,,0.16,218.00,VWS V14.01,2013-04-29 18:35:00,
2013-04-29 14:40:00,63.9,59.0,30.01,NE,42,0.0,0.0,84,0.00,,,0.16,295.00,VWS V14.01,2013-04-29 18:40:00,
2013-04-29 14:45:00,64.2,59.3,30.01,NE,42,0.0,0.0,84,0.00,,,0.16,401.00,VWS V14.01,2013-04-29 18:45:00,
2013-04-29 14:50:00,64.3,59.4,30.01,NE,42,1.0,1.0,84,0.00,,,0.16,383.00,VWS V14.01,2013-04-29 18:50:00,
2013-04-29 14:55:00,64.7,59.4,30.01,NNW,330,0.0,0.0,83,0.00,,,0.16,320.00,VWS V14.01,2013-04-29 18:55:00,
2013-04-29 15:00:00,65.0,60.0,30.01,WSW,254,2.0,3.0,84,0.00,,,0.16,336.00,VWS V14.01,2013-04-29 19:00:00,
2013-04-29 15:05:00,65.0,59.4,30.01,SW,228,1.0,3.0,82,0.00,,,0.16,446.00,VWS V14.01,2013-04-29 19:05:00,
2013-04-29 15:10:00,65.2,59.6,30.00,SSW,210,3.0,5.0,82,0.00,,,0.16,397.00,VWS V14.01,2013-04-29 19:10:00,
2013-04-29 15:15:00,65.4,59.4,30.00,SW,223,0.0,0.0,81,0.00,,,0.16,294.00,VWS V14.01,2013-04-29 19:15:00,
2013-04-29 15:20:00,65.7,60.1,30.00,SSE,164,0.0,0.0,82,0.00,,,0.16,283.00,VWS V14.01,2013-04-29 19:20:00,
2013-04-29 15:25:00,65.8,59.5,30.00,SW,227,1.0,1.0,80,0.00,,,0.16,376.00,VWS V14.01,2013-04-29 19:25:00,
2013-04-29 15:30:00,65.9,59.6,30.00,NW,325,1.0,1.0,80,0.00,,,0.16,336.00,VWS V14.01,2013-04-29 19:30:00,
2013-04-29 15:35:00,66.5,60.5,30.00,NW,325,0.0,0.0,81,0.00,,,0.16,299.00,VWS V14.01,2013-04-29 19:35:00,
2013-04-29 15:40:00,66.7,60.3,29.99,NW,304,3.0,3.0,80,0.00,,,0.16,318.00,VWS V14.01,2013-04-29 19:40:00,
2013-04-29 15:45:00,67.0,60.3,29.99,WSW,257,0.0,1.0,79,0.00,,,0.16,661.00,VWS V14.01,2013-04-29 19:45:00,
2013-04-29 15:50:00,67.5,60.0,29.99,WSW,257,0.0,1.0,77,0.00,,,0.16,863.00,VWS V14.01,2013-04-29 19:50:00,
2013-04-29 15:55:00,68.2,60.3,29.98,WSW,257,0.0,0.0,76,0.00,,,0.16,185.00,VWS V14.01,2013-04-29 19:55:00,
2013-04-29 16:00:00,68.8,60.9,29.98,WSW,257,0.0,0.0,76,0.00,,,0.16,856.00,VWS V14.01,2013-04-29 20:00:00,
2013-04-29 16:05:00,69.3,60.7,29.98,WSW,257,0.0,0.0,74,0.00,,,0.16,343.00,VWS V14.01,2013-04-29 20:05:00,
2013-04-29 16:10:00,69.8,60.8,29.98,West,268,0.0,0.0,73,0.00,,,0.16,879.00,VWS V14.01,2013-04-29 20:10:00,
2013-04-29 16:15:00,70.1,60.7,29.98,West,267,0.0,2.0,72,0.00,,,0.16,183.00,VWS V14.01,2013-04-29 20:15:00,
2013-04-29 16:20:00,70.2,61.5,29.98,West,267,1.0,1.0,74,0.00,,,0.16,209.00,VWS V14.01,2013-04-29 20:20:00,
2013-04-29 16:25:00,70.1,60.3,29.97,West,267,0.0,0.0,71,0.00,,,0.16,854.00,VWS V14.01,2013-04-29 20:25:00,
2013-04-29 16:30:00,70.3,60.5,29.97,SSW,202,0.0,0.0,71,0.00,,,0.16,854.00,VWS V14.01,2013-04-29 20:30:00,
2013-04-29 16:35:00,70.4,61.3,29.97,ENE,60,1.0,2.0,73,0.00,,,0.16,814.00,VWS V14.01,2013-04-29 20:35:00,
2013-04-29 16:40:00,70.8,60.9,29.97,North,11,0.0,0.0,71,0.00,,,0.16,301.00,VWS V14.01,2013-04-29 20:40:00,
2013-04-29 16:45:00,71.9,61.6,29.96,North,11,0.0,1.0,70,0.00,,,0.16,780.00,VWS V14.01,2013-04-29 20:45:00,
2013-04-29 16:50:00,72.8,62.0,29.96,South,176,0.0,0.0,69,0.00,,,0.16,724.00,VWS V14.01,2013-04-29 20:50:00,
2013-04-29 16:55:00,73.6,62.0,29.96,South,183,0.0,2.0,67,0.00,,,0.16,717.00,VWS V14.01,2013-04-29 20:55:00,
2013-04-29 17:00:00,74.2,61.7,29.96,South,180,0.0,0.0,65,0.00,,,0.16,698.00,VWS V14.01,2013-04-29 21:00:00,
2013-04-29 17:05:00,73.8,61.3,29.96,NNE,22,3.0,4.0,65,0.00,,,0.16,671.00,VWS V14.01,2013-04-29 21:05:00,
2013-04-29 17:10:00,73.1,60.7,29.96,NNE,31,1.0,2.0,65,0.00,,,0.16,631.00,VWS V14.01,2013-04-29 21:10:00,
2013-04-29 17:15:00,73.1,61.1,29.96,West,274,3.0,4.0,66,0.00,,,0.16,603.00,VWS V14.01,2013-04-29 21:15:00,
2013-04-29 17:20:00,73.1,60.7,29.95,WSW,238,0.0,2.0,65,0.00,,,0.16,598.00,VWS V14.01,2013-04-29 21:20:00,
2013-04-29 17:25:00,73.2,61.2,29.95,WSW,238,2.0,2.0,66,0.00,,,0.16,471.00,VWS V14.01,2013-04-29 21:25:00,
2013-04-29 17:30:00,73.2,61.2,29.95,WSW,238,0.0,0.0,66,0.00,,,0.16,167.00,VWS V14.01,2013-04-29 21:30:00,
2013-04-29 17:35:00,72.7,59.8,29.95,NE,44,3.0,3.0,64,0.00,,,0.16,178.00,VWS V14.01,2013-04-29 21:35:00,
2013-04-29 17:40:00,72.1,60.1,29.96,NE,44,1.0,2.0,66,0.00,,,0.16,195.00,VWS V14.01,2013-04-29 21:40:00,
2013-04-29 17:45:00,71.9,60.8,29.95,West,269,0.0,0.0,68,0.00,,,0.16,141.00,VWS V14.01,2013-04-29 21:45:00,
2013-04-29 17:50:00,71.6,60.1,29.96,West,269,0.0,0.0,67,0.00,,,0.16,118.00,VWS V14.01,2013-04-29 21:50:00,
2013-04-29 17:55:00,71.6,60.9,29.96,West,269,0.0,0.0,69,0.00,,,0.16,111.00,VWS V14.01,2013-04-29 21:55:00,
2013-04-29 18:00:00,71.3,60.6,29.96,West,269,0.0,0.0,69,0.00,,,0.16,77.00,VWS V14.01,2013-04-29 22:00:00,
2013-04-29 18:05:00,71.1,61.6,29.96,West,269,0.0,0.0,72,0.00,,,0.16,69.00,VWS V14.01,2013-04-29 22:05:00,
2013-04-29 18:10:00,70.8,62.5,29.95,West,269,0.0,0.0,75,0.00,,,0.16,88.00,VWS V14.01,2013-04-29 22:10:00,
2013-04-29 18:15:00,70.5,62.2,29.96,West,269,0.0,0.0,75,0.00,,,0.16,77.00,VWS V14.01,2013-04-29 22:15:00,
2013-04-29 18:20:00,70.4,62.5,29.96,West,269,0.0,0.0,76,0.00,,,0.16,69.00,VWS V14.01,2013-04-29 22:20:00,
2013-04-29 18:25:00,70.2,62.3,29.96,West,269,0.0,0.0,76,0.00,,,0.16,63.00,VWS V14.01,2013-04-29 22:25:00,
2013-04-29 18:30:00,69.9,61.2,29.96,West,269,0.0,0.0,74,0.00,,,0.16,62.00,VWS V14.01,2013-04-29 22:30:00,
2013-04-29 18:35:00,69.6,60.6,29.96,West,269,0.0,0.0,73,0.00,,,0.16,54.00,VWS V14.01,2013-04-29 22:35:00,
2013-04-29 18:40:00,69.4,61.9,29.96,West,269,0.0,0.0,77,0.00,,,0.16,54.00,VWS V14.01,2013-04-29 22:40:00,
2013-04-29 18:45:00,69.3,61.8,29.96,West,269,0.0,0.0,77,0.00,,,0.16,54.00,VWS V14.01,2013-04-29 22:45:00,
2013-04-29 18:50:00,69.1,62.0,29.96,West,269,0.0,0.0,78,0.00,,,0.16,62.00,VWS V14.01,2013-04-29 22:50:00,
2013-04-29 18:55:00,68.6,61.8,29.96,West,269,0.0,0.0,79,0.00,,,0.16,51.00,VWS V14.01,2013-04-29 22:55:00,
2013-04-29 19:00:00,68.3,61.5,29.96,West,270,0.0,0.0,79,0.00,,,0.16,39.00,VWS V14.01,2013-04-29 23:00:00,
2013-04-29 19:05:00,68.0,62.0,29.96,West,271,0.0,0.0,81,0.00,,,0.16,28.00,VWS V14.01,2013-04-29 23:05:00,
2013-04-29 19:10:00,67.8,61.8,29.96,West,271,0.0,0.0,81,0.00,,,0.16,28.00,VWS V14.01,2013-04-29 23:10:00,
2013-04-29 19:15:00,67.5,61.5,29.96,West,271,0.0,0.0,81,0.00,,,0.16,19.00,VWS V14.01,2013-04-29 23:15:00,
2013-04-29 19:20:00,67.3,61.3,29.96,West,271,0.0,0.0,81,0.00,,,0.16,21.00,VWS V14.01,2013-04-29 23:20:00,
2013-04-29 19:25:00,67.0,61.3,29.97,West,271,0.0,0.0,82,0.00,,,0.16,19.00,VWS V14.01,2013-04-29 23:25:00,
2013-04-29 19:30:00,66.7,61.0,29.97,West,270,0.0,0.0,82,0.00,,,0.16,16.00,VWS V14.01,2013-04-29 23:30:00,
2013-04-29 19:35:00,66.4,60.7,29.97,West,270,0.0,0.0,82,0.00,,,0.16,12.00,VWS V14.01,2013-04-29 23:35:00,
2013-04-29 19:40:00,66.0,60.7,29.97,West,271,0.0,0.0,83,0.00,,,0.16,11.00,VWS V14.01,2013-04-29 23:40:00,
2013-04-29 19:45:00,65.7,60.7,29.97,West,270,0.0,0.0,84,0.00,,,0.16,9.00,VWS V14.01,2013-04-29 23:45:00,
2013-04-29 19:50:00,65.2,60.6,29.97,West,271,0.0,0.0,85,0.00,,,0.16,7.00,VWS V14.01,2013-04-29 23:50:00,
2013-04-29 19:55:00,64.9,60.6,29.97,West,271,0.0,0.0,86,0.00,,,0.16,5.00,VWS V14.01,2013-04-29 23:55:00,
2013-04-29 20:00:00,64.6,60.3,29.98,West,271,0.0,0.0,86,0.00,,,0.16,5.00,VWS V14.01,2013-04-30 00:00:00,
2013-04-29 20:05:00,64.3,60.3,29.98,West,270,0.0,0.0,87,0.00,,,0.16,0.00,VWS V14.01,2013-04-30 00:05:00,
2013-04-29 20:10:00,64.1,60.2,29.98,West,270,0.0,0.0,87,0.00,,,0.16,0.00,VWS V14.01,2013-04-30 00:10:00,
2013-04-29 20:15:00,63.9,60.0,29.98,West,270,0.0,0.0,87,0.00,,,0.16,0.00,VWS V14.01,2013-04-30 00:15:00,
2013-04-29 20:20:00,63.7,60.1,29.98,West,270,0.0,0.0,88,0.00,,,0.16,0.00,VWS V14.01,2013-04-30 00:20:00,
2013-04-29 20:25:00,63.4,59.8,29.98,West,270,0.0,0.0,88,0.00,,,0.16,0.00,VWS V14.01,2013-04-30 00:25:00,
2013-04-29 20:30:00,63.2,59.9,29.99,West,270,0.0,0.0,89,0.00,,,0.16,0.00,VWS V14.01,2013-04-30 00:30:00,
2013-04-29 20:35:00,63.0,59.7,29.99,West,271,0.0,0.0,89,0.00,,,0.16,0.00,VWS V14.01,2013-04-30 00:35:00,
2013-04-29 20:40:00,62.8,59.8,29.99,West,270,0.0,0.0,90,0.00,,,0.16,0.00,VWS V14.01,2013-04-30 00:40:00,
2013-04-29 20:45:00,62.5,59.5,29.99,West,270,0.0,0.0,90,0.00,,,0.16,0.00,VWS V14.01,2013-04-30 00:45:00,
2013-04-29 20:50:00,62.4,59.7,29.99,West,270,0.0,0.0,91,0.00,,,0.16,0.00,VWS V14.01,2013-04-30 00:50:00,
2013-04-29 20:55:00,62.3,59.6,29.99,West,270,0.0,0.0,91,0.00,,,0.16,0.00,VWS V14.01,2013-04-30 00:55:00,
2013-04-29 21:00:00,62.2,59.5,29.99,West,270,0.0,0.0,91,0.00,,,0.16,0.00,VWS V14.01,2013-04-30 01:00:00,
2013-04-29 21:05:00,62.0,59.3,29.99,West,270,0.0,0.0,91,0.00,,,0.16,0.00,VWS V14.01,2013-04-30 01:05:00,
2013-04-29 21:10:00,61.9,59.2,29.99,West,270,0.0,0.0,91,0.00,,,0.16,0.00,VWS V14.01,2013-04-30 01:10:00,
2013-04-29 21:15:00,61.8,59.2,29.99,West,270,0.0,0.0,91,0.00,,,0.16,0.00,VWS V14.01,2013-04-30 01:15:00,
2013-04-29 21:20:00,61.7,59.4,29.99,West,270,0.0,0.0,92,0.00,,,0.16,0.00,VWS V14.01,2013-04-30 01:20:00,
2013-04-29 21:25:00,61.6,59.3,30.00,West,270,0.0,0.0,92,0.00,,,0.16,0.00,VWS V14.01,2013-04-30 01:25:00,
2013-04-29 21:30:00,61.5,59.2,30.00,West,271,0.0,0.0,92,0.00,,,0.16,0.00,VWS V14.01,2013-04-30 01:30:00,
2013-04-29 21:35:00,61.4,59.1,30.00,West,270,0.0,0.0,92,0.00,,,0.16,0.00,VWS V14.01,2013-04-30 01:35:00,
2013-04-29 21:40:00,61.3,59.0,30.00,West,270,0.0,0.0,92,0.00,,,0.16,0.00,VWS V14.01,2013-04-30 01:40:00,
2013-04-29 21:45:00,61.1,58.8,30.00,West,270,0.0,0.0,92,0.00,,,0.16,0.00,VWS V14.01,2013-04-30 01:45:00,
2013-04-29 21:50:00,61.1,59.1,30.00,West,270,0.0,0.0,93,0.00,,,0.16,0.00,VWS V14.01,2013-04-30 01:50:00,
2013-04-29 21:55:00,61.0,58.7,30.00,West,271,0.0,0.0,92,0.00,,,0.16,0.00,VWS V14.01,2013-04-30 01:55:00,
2013-04-29 22:00:00,60.9,58.6,30.00,West,270,0.0,0.0,92,0.00,,,0.16,0.00,VWS V14.01,2013-04-30 02:00:00,
2013-04-29 22:05:00,60.8,58.8,30.00,West,270,0.0,0.0,93,0.00,,,0.16,0.00,VWS V14.01,2013-04-30 02:05:00,
2013-04-29 22:10:00,60.7,58.7,30.00,West,271,0.0,0.0,93,0.00,,,0.16,0.00,VWS V14.01,2013-04-30 02:10:00,
2013-04-29 22:15:00,60.6,58.6,30.01,West,270,0.0,0.0,93,0.00,,,0.16,0.00,VWS V14.01,2013-04-30 02:15:00,
2013-04-29 22:20:00,60.5,58.5,30.01,West,270,0.0,0.0,93,0.00,,,0.16,0.00,VWS V14.01,2013-04-30 02:20:00,
2013-04-29 22:25:00,60.5,58.5,30.01,West,270,0.0,0.0,93,0.00,,,0.16,0.00,VWS V14.01,2013-04-30 02:25:00,
2013-04-29 22:30:00,60.4,58.4,30.01,West,271,0.0,0.0,93,0.00,,,0.16,0.00,VWS V14.01,2013-04-30 02:30:00,
2013-04-29 22:35:00,60.3,58.3,30.01,West,270,0.0,0.0,93,0.00,,,0.16,0.00,VWS V14.01,2013-04-30 02:35:00,
2013-04-29 22:40:00,60.2,58.2,30.01,West,270,0.0,0.0,93,0.00,,,0.16,0.00,VWS V14.01,2013-04-30 02:40:00,
2013-04-29 22:45:00,60.0,58.0,30.01,West,270,0.0,0.0,93,0.00,,,0.16,0.00,VWS V14.01,2013-04-30 02:45:00,
2013-04-29 22:50:00,59.9,58.2,30.01,West,270,0.0,0.0,94,0.00,,,0.16,0.00,VWS V14.01,2013-04-30 02:50:00,
2013-04-29 22:55:00,59.9,58.2,30.01,West,270,0.0,0.0,94,0.00,,,0.16,0.00,VWS V14.01,2013-04-30 02:55:00,
2013-04-29 23:00:00,59.8,57.8,30.01,West,270,0.0,0.0,93,0.00,,,0.16,0.00,VWS V14.01,2013-04-30 03:00:00,
2013-04-29 23:05:00,59.7,57.7,30.01,West,270,0.0,0.0,93,0.00,,,0.16,0.00,VWS V14.01,2013-04-30 03:05:00,
2013-04-29 23:10:00,59.6,57.6,30.01,West,270,0.0,0.0,93,0.00,,,0.16,0.00,VWS V14.01,2013-04-30 03:10:00,
2013-04-29 23:15:00,59.5,57.8,30.01,West,271,0.0,0.0,94,0.00,,,0.16,0.00,VWS V14.01,2013-04-30 03:15:00,
2013-04-29 23:20:00,59.5,57.8,30.01,West,270,0.0,0.0,94,0.00,,,0.16,0.00,VWS V14.01,2013-04-30 03:20:00,
2013-04-29 23:25:00,59.4,57.7,30.01,West,270,0.0,0.0,94,0.00,,,0.16,0.00,VWS V14.01,2013-04-30 03:25:00,
2013-04-29 23:30:00,59.3,57.6,30.01,West,270,0.0,0.0,94,0.00,,,0.16,0.00,VWS V14.01,2013-04-30 03:30:00,
2013-04-29 23:35:00,59.3,57.6,30.01,West,270,0.0,0.0,94,0.00,,,0.16,0.00,VWS V14.01,2013-04-30 03:35:00,
2013-04-29 23:40:00,59.2,57.5,30.01,West,270,0.0,0.0,94,0.00,,,0.16,0.00,VWS V14.01,2013-04-30 03:40:00,
2013-04-29 23:45:00,59.2,57.5,30.01,West,270,0.0,0.0,94,0.00,,,0.16,0.00,VWS V14.01,2013-04-30 03:45:00,
2013-04-29 23:50:00,59.1,57.4,30.01,West,270,0.0,0.0,94,0.00,,,0.16,0.00,VWS V14.01,2013-04-30 03:50:00,
2013-04-29 23:55:00,59.1,57.4,30.01,West,270,0.0,0.0,94,0.00,,,0.16,0.00,VWS V14.01,2013-04-30 03:55:00,